sensor_id;sensor_type;location;lat;lon;timestamp;pressure;altitude;pressure_sealevel;temperature;humidity
39141;BME280;24875;48.436;10.298;2023-03-19T17:26:12;96197.97;;;12.73;91.41
39141;BME280;24875;48.436;10.298;2023-03-19T17:28:40;96207.47;;;12.68;89.98
39141;BME280;24875;48.436;10.298;2023-03-19T17:31:19;96202.47;;;12.79;88.33
39141;BME280;24875;48.436;10.298;2023-03-19T17:33:46;96212.94;;;12.66;89.13
39141;BME280;24875;48.436;10.298;2023-03-19T17:36:12;96227.09;;;12.59;89.21
39141;BME280;24875;48.436;10.298;2023-03-19T17:38:40;96225.59;;;12.50;88.60
39141;BME280;24875;48.436;10.298;2023-03-19T17:41:11;96235.56;;;12.48;89.83
39141;BME280;24875;48.436;10.298;2023-03-19T17:43:38;96239.81;;;12.28;90.45
39141;BME280;24875;48.436;10.298;2023-03-19T17:46:05;96235.91;;;12.24;91.27
39141;BME280;24875;48.436;10.298;2023-03-19T17:48:32;96241.78;;;12.19;90.97
39141;BME280;24875;48.436;10.298;2023-03-19T17:51:00;96236.84;;;12.16;92.02
39141;BME280;24875;48.436;10.298;2023-03-19T17:53:27;96238.72;;;12.02;92.01
39141;BME280;24875;48.436;10.298;2023-03-19T17:55:54;96241.03;;;11.90;93.76
39141;BME280;24875;48.436;10.298;2023-03-19T17:58:21;96238.09;;;11.85;95.12
39141;BME280;24875;48.436;10.298;2023-03-19T18:00:50;96239.75;;;11.86;94.78
39141;BME280;24875;48.436;10.298;2023-03-19T18:03:18;96242.38;;;12.21;94.46
39141;BME280;24875;48.436;10.298;2023-03-19T18:05:46;96237.28;;;12.20;93.23
39141;BME280;24875;48.436;10.298;2023-03-19T18:08:16;96243.22;;;12.08;93.02
39141;BME280;24875;48.436;10.298;2023-03-19T18:10:43;96233.94;;;11.76;95.24
39141;BME280;24875;48.436;10.298;2023-03-19T18:13:10;96241.31;;;11.66;96.18
39141;BME280;24875;48.436;10.298;2023-03-19T18:15:39;96251.16;;;11.72;95.34
39141;BME280;24875;48.436;10.298;2023-03-19T18:18:13;96243.38;;;11.71;95.52
39141;BME280;24875;48.436;10.298;2023-03-19T18:20:41;96256.59;;;11.56;95.75
39141;BME280;24875;48.436;10.298;2023-03-19T18:23:09;96250.59;;;11.62;95.70
39141;BME280;24875;48.436;10.298;2023-03-19T18:25:37;96256.97;;;11.54;95.15
39141;BME280;24875;48.436;10.298;2023-03-19T18:28:04;96268.16;;;11.55;95.64
39141;BME280;24875;48.436;10.298;2023-03-19T18:30:32;96271.38;;;11.29;97.65
39141;BME280;24875;48.436;10.298;2023-03-19T18:33:03;96272.56;;;11.26;99.24
39141;BME280;24875;48.436;10.298;2023-03-19T18:35:32;96273.97;;;11.37;98.42
39141;BME280;24875;48.436;10.298;2023-03-19T18:38:00;96267.75;;;11.30;98.56
39141;BME280;24875;48.436;10.298;2023-03-19T18:40:29;96273.22;;;11.43;100.00
39141;BME280;24875;48.436;10.298;2023-03-19T18:42:56;96274.59;;;12.11;100.00
39141;BME280;24875;48.436;10.298;2023-03-19T18:45:26;96274.19;;;12.14;96.68
39141;BME280;24875;48.436;10.298;2023-03-19T18:47:54;96272.69;;;11.90;96.54
39141;BME280;24875;48.436;10.298;2023-03-19T18:50:24;96280.44;;;11.92;96.53
39141;BME280;24875;48.436;10.298;2023-03-19T18:52:52;96280.28;;;11.79;96.72
39141;BME280;24875;48.436;10.298;2023-03-19T18:55:20;96287.06;;;11.73;96.74
39141;BME280;24875;48.436;10.298;2023-03-19T18:57:52;96289.19;;;11.63;97.34
39141;BME280;24875;48.436;10.298;2023-03-19T19:00:22;96305.34;;;11.46;98.05
39141;BME280;24875;48.436;10.298;2023-03-19T19:02:49;96304.94;;;11.20;100.00
39141;BME280;24875;48.436;10.298;2023-03-19T19:05:19;96313.25;;;11.32;100.00
39141;BME280;24875;48.436;10.298;2023-03-19T19:07:49;96329.97;;;11.39;100.00
39141;BME280;24875;48.436;10.298;2023-03-19T19:10:16;96325.69;;;11.38;100.00
39141;BME280;24875;48.436;10.298;2023-03-19T19:12:45;96323.13;;;11.52;100.00
39141;BME280;24875;48.436;10.298;2023-03-19T19:15:19;96324.31;;;11.50;100.00
39141;BME280;24875;48.436;10.298;2023-03-19T19:17:48;96324.41;;;11.56;99.60
39141;BME280;24875;48.436;10.298;2023-03-19T19:20:16;96324.22;;;11.57;99.92
39141;BME280;24875;48.436;10.298;2023-03-19T19:22:43;96331.94;;;11.59;99.45
39141;BME280;24875;48.436;10.298;2023-03-19T19:25:15;96333.22;;;11.63;99.46
39141;BME280;24875;48.436;10.298;2023-03-19T19:27:43;96338.50;;;11.63;99.52
39141;BME280;24875;48.436;10.298;2023-03-19T19:30:14;96339.47;;;11.48;100.00
39141;BME280;24875;48.436;10.298;2023-03-19T19:32:42;96350.72;;;11.42;100.00
39141;BME280;24875;48.436;10.298;2023-03-19T19:35:14;96355.34;;;11.62;100.00
39141;BME280;24875;48.436;10.298;2023-03-19T19:37:41;96351.97;;;11.68;99.49
39141;BME280;24875;48.436;10.298;2023-03-19T19:40:10;96343.44;;;11.66;99.75
39141;BME280;24875;48.436;10.298;2023-03-19T19:42:39;96345.44;;;11.64;100.00
39141;BME280;24875;48.436;10.298;2023-03-19T19:45:20;96353.34;;;11.78;99.60
39141;BME280;24875;48.436;10.298;2023-03-19T19:47:47;96349.34;;;11.68;99.46
39141;BME280;24875;48.436;10.298;2023-03-19T19:50:15;96353.06;;;11.73;99.92
39141;BME280;24875;48.436;10.298;2023-03-19T19:52:42;96349.56;;;11.95;100.00
39141;BME280;24875;48.436;10.298;2023-03-19T19:55:09;96350.66;;;12.50;99.67
39141;BME280;24875;48.436;10.298;2023-03-19T19:57:36;96360.31;;;12.93;95.19
39141;BME280;24875;48.436;10.298;2023-03-19T20:00:15;96360.69;;;12.90;93.17
39141;BME280;24875;48.436;10.298;2023-03-19T20:02:42;96369.19;;;12.36;93.40
39141;BME280;24875;48.436;10.298;2023-03-19T20:05:14;96371.53;;;12.45;93.84
39141;BME280;24875;48.436;10.298;2023-03-19T20:07:41;96375.03;;;12.17;95.13
39141;BME280;24875;48.436;10.298;2023-03-19T20:10:08;96375.56;;;12.13;96.57
39141;BME280;24875;48.436;10.298;2023-03-19T20:12:35;96378.41;;;11.97;98.38
39141;BME280;24875;48.436;10.298;2023-03-19T20:15:02;96382.69;;;11.83;99.73
39141;BME280;24875;48.436;10.298;2023-03-19T20:17:30;96387.06;;;11.76;100.00
39141;BME280;24875;48.436;10.298;2023-03-19T20:19:56;96392.56;;;11.67;100.00
39141;BME280;24875;48.436;10.298;2023-03-19T20:22:23;96385.91;;;11.56;100.00
39141;BME280;24875;48.436;10.298;2023-03-19T20:24:49;96389.66;;;11.62;100.00
39141;BME280;24875;48.436;10.298;2023-03-19T20:27:18;96398.78;;;11.74;100.00
39141;BME280;24875;48.436;10.298;2023-03-19T20:29:45;96391.59;;;11.68;100.00
39141;BME280;24875;48.436;10.298;2023-03-19T20:32:23;96385.88;;;11.79;100.00
39141;BME280;24875;48.436;10.298;2023-03-19T20:34:52;96395.88;;;11.69;100.00
39141;BME280;24875;48.436;10.298;2023-03-19T20:37:18;96395.59;;;11.64;100.00
39141;BME280;24875;48.436;10.298;2023-03-19T20:39:45;96397.84;;;11.67;100.00
39141;BME280;24875;48.436;10.298;2023-03-19T20:42:13;96396.78;;;11.76;100.00
39141;BME280;24875;48.436;10.298;2023-03-19T20:44:41;96405.16;;;11.65;99.96
39141;BME280;24875;48.436;10.298;2023-03-19T20:47:13;96408.59;;;11.80;99.41
39141;BME280;24875;48.436;10.298;2023-03-19T20:49:40;96406.56;;;11.53;98.94
39141;BME280;24875;48.436;10.298;2023-03-19T20:52:08;96411.72;;;11.83;98.46
39141;BME280;24875;48.436;10.298;2023-03-19T20:54:36;96412.63;;;11.76;98.79
39141;BME280;24875;48.436;10.298;2023-03-19T20:57:03;96414.81;;;11.72;100.00
39141;BME280;24875;48.436;10.298;2023-03-19T20:59:29;96416.88;;;11.62;100.00
39141;BME280;24875;48.436;10.298;2023-03-19T21:01:56;96413.97;;;11.57;100.00
39141;BME280;24875;48.436;10.298;2023-03-19T21:04:22;96420.41;;;11.55;100.00
39141;BME280;24875;48.436;10.298;2023-03-19T21:06:49;96416.50;;;11.65;100.00
39141;BME280;24875;48.436;10.298;2023-03-19T21:09:17;96420.63;;;11.68;100.00
39141;BME280;24875;48.436;10.298;2023-03-19T21:11:44;96416.69;;;11.50;100.00
39141;BME280;24875;48.436;10.298;2023-03-19T21:14:13;96413.47;;;11.54;100.00
39141;BME280;24875;48.436;10.298;2023-03-19T21:16:41;96407.44;;;11.46;100.00
39141;BME280;24875;48.436;10.298;2023-03-19T21:19:08;96419.75;;;11.53;100.00
39141;BME280;24875;48.436;10.298;2023-03-19T21:21:36;96418.94;;;11.53;100.00
39141;BME280;24875;48.436;10.298;2023-03-19T21:24:05;96419.81;;;11.45;100.00
39141;BME280;24875;48.436;10.298;2023-03-19T21:26:36;96415.94;;;11.33;100.00
39141;BME280;24875;48.436;10.298;2023-03-19T21:29:05;96413.25;;;11.41;100.00
39141;BME280;24875;48.436;10.298;2023-03-19T21:31:33;96410.75;;;11.25;100.00
39141;BME280;24875;48.436;10.298;2023-03-19T21:33:59;96411.63;;;11.18;100.00
39141;BME280;24875;48.436;10.298;2023-03-19T21:36:26;96405.28;;;11.04;100.00
39141;BME280;24875;48.436;10.298;2023-03-19T21:38:53;96404.13;;;11.07;100.00
39141;BME280;24875;48.436;10.298;2023-03-19T21:41:21;96414.97;;;11.12;100.00
39141;BME280;24875;48.436;10.298;2023-03-19T21:43:52;96420.81;;;10.99;100.00
39141;BME280;24875;48.436;10.298;2023-03-19T21:46:23;96416.78;;;11.11;100.00
39141;BME280;24875;48.436;10.298;2023-03-19T21:48:51;96414.66;;;11.07;100.00
39141;BME280;24875;48.436;10.298;2023-03-19T21:51:17;96410.22;;;11.07;100.00
39141;BME280;24875;48.436;10.298;2023-03-19T21:53:44;96409.38;;;10.85;100.00
39141;BME280;24875;48.436;10.298;2023-03-19T21:56:18;96416.00;;;10.81;100.00
39141;BME280;24875;48.436;10.298;2023-03-19T21:58:46;96425.53;;;10.82;100.00
39141;BME280;24875;48.436;10.298;2023-03-19T22:01:16;96428.28;;;10.88;100.00
39141;BME280;24875;48.436;10.298;2023-03-19T22:03:43;96418.28;;;10.84;100.00
39141;BME280;24875;48.436;10.298;2023-03-19T22:06:10;96422.22;;;10.88;100.00
39141;BME280;24875;48.436;10.298;2023-03-19T22:08:37;96421.56;;;10.86;100.00
39141;BME280;24875;48.436;10.298;2023-03-19T22:11:12;96417.34;;;10.99;100.00
39141;BME280;24875;48.436;10.298;2023-03-19T22:13:39;96420.25;;;10.82;100.00
39141;BME280;24875;48.436;10.298;2023-03-19T22:16:16;96425.78;;;10.94;100.00
39141;BME280;24875;48.436;10.298;2023-03-19T22:18:44;96430.50;;;10.77;100.00
39141;BME280;24875;48.436;10.298;2023-03-19T22:21:13;96431.06;;;10.94;100.00
39141;BME280;24875;48.436;10.298;2023-03-19T22:23:40;96435.78;;;10.77;100.00
39141;BME280;24875;48.436;10.298;2023-03-19T22:26:28;96439.56;;;10.82;100.00
39141;BME280;24875;48.436;10.298;2023-03-19T22:28:57;96431.53;;;10.76;100.00
39141;BME280;24875;48.436;10.298;2023-03-19T22:31:26;96435.44;;;10.80;100.00
39141;BME280;24875;48.436;10.298;2023-03-19T22:33:52;96435.81;;;10.69;100.00
39141;BME280;24875;48.436;10.298;2023-03-19T22:36:19;96436.31;;;10.72;100.00
39141;BME280;24875;48.436;10.298;2023-03-19T22:38:46;96434.97;;;10.76;100.00
39141;BME280;24875;48.436;10.298;2023-03-19T22:41:16;96435.19;;;10.67;100.00
39141;BME280;24875;48.436;10.298;2023-03-19T22:43:44;96438.50;;;10.61;100.00
39141;BME280;24875;48.436;10.298;2023-03-19T22:46:13;96440.59;;;10.73;100.00
39141;BME280;24875;48.436;10.298;2023-03-19T22:48:42;96435.63;;;10.78;100.00
39141;BME280;24875;48.436;10.298;2023-03-19T22:51:13;96436.66;;;10.69;100.00
39141;BME280;24875;48.436;10.298;2023-03-19T22:53:41;96433.41;;;10.59;100.00
39141;BME280;24875;48.436;10.298;2023-03-19T22:56:09;96429.03;;;10.74;100.00
39141;BME280;24875;48.436;10.298;2023-03-19T22:58:36;96430.22;;;10.72;100.00
39141;BME280;24875;48.436;10.298;2023-03-19T23:01:24;96432.56;;;10.67;100.00
39141;BME280;24875;48.436;10.298;2023-03-19T23:03:54;96430.16;;;10.49;100.00
39141;BME280;24875;48.436;10.298;2023-03-19T23:06:22;96430.47;;;10.54;100.00
39141;BME280;24875;48.436;10.298;2023-03-19T23:08:51;96432.97;;;10.48;100.00
39141;BME280;24875;48.436;10.298;2023-03-19T23:11:18;96436.38;;;10.56;100.00
39141;BME280;24875;48.436;10.298;2023-03-19T23:13:44;96432.28;;;10.54;100.00
39141;BME280;24875;48.436;10.298;2023-03-19T23:16:17;96440.03;;;10.55;100.00
39141;BME280;24875;48.436;10.298;2023-03-19T23:18:45;96440.69;;;10.49;100.00
39141;BME280;24875;48.436;10.298;2023-03-19T23:21:14;96441.38;;;10.51;100.00
39141;BME280;24875;48.436;10.298;2023-03-19T23:23:41;96453.75;;;10.43;100.00
39141;BME280;24875;48.436;10.298;2023-03-19T23:26:22;96449.09;;;10.53;100.00
39141;BME280;24875;48.436;10.298;2023-03-19T23:28:49;96453.56;;;10.44;100.00
39141;BME280;24875;48.436;10.298;2023-03-19T23:31:16;96455.88;;;10.39;100.00
39141;BME280;24875;48.436;10.298;2023-03-19T23:33:43;96451.56;;;10.54;100.00
39141;BME280;24875;48.436;10.298;2023-03-19T23:36:10;96448.44;;;10.51;100.00
39141;BME280;24875;48.436;10.298;2023-03-19T23:38:38;96448.38;;;10.59;100.00
39141;BME280;24875;48.436;10.298;2023-03-19T23:41:05;96457.66;;;10.47;100.00
39141;BME280;24875;48.436;10.298;2023-03-19T23:43:33;96457.44;;;10.56;100.00
39141;BME280;24875;48.436;10.298;2023-03-19T23:46:00;96458.97;;;10.51;100.00
39141;BME280;24875;48.436;10.298;2023-03-19T23:48:31;96456.28;;;10.59;100.00
39141;BME280;24875;48.436;10.298;2023-03-19T23:50:59;96462.91;;;10.55;100.00
39141;BME280;24875;48.436;10.298;2023-03-19T23:53:27;96463.56;;;10.57;100.00
39141;BME280;24875;48.436;10.298;2023-03-19T23:55:57;96461.88;;;10.64;100.00
39141;BME280;24875;48.436;10.298;2023-03-19T23:58:27;96466.84;;;10.59;100.00
